createdAt,value
2023-02-21T00:02:43.044Z,97.30
2023-02-21T00:05:29.620Z,74.80
2023-02-21T00:08:15.488Z,74.30
2023-02-21T00:11:01.046Z,79.20
2023-02-21T00:13:46.928Z,90.80
2023-02-21T00:16:35.749Z,85.70
2023-02-21T00:19:21.773Z,89.60
2023-02-21T00:22:07.365Z,91.00
2023-02-21T00:24:53.016Z,92.80
2023-02-21T00:27:38.410Z,95.10
2023-02-21T00:30:30.610Z,97.90
2023-02-21T00:33:17.771Z,99.90
2023-02-21T00:36:03.245Z,99.90
2023-02-21T00:38:53.398Z,99.90
2023-02-21T00:41:40.934Z,99.90
2023-02-21T00:44:27.081Z,99.90
2023-02-21T00:47:12.809Z,99.90
2023-02-21T00:50:01.511Z,99.90
2023-02-21T00:52:46.841Z,99.90
2023-02-21T00:55:45.227Z,99.90
2023-02-21T00:58:31.592Z,99.90
2023-02-21T01:01:17.538Z,99.90
2023-02-21T01:04:03.321Z,99.90
2023-02-21T01:06:49.954Z,99.90
2023-02-21T01:09:38.878Z,99.90
2023-02-21T01:12:25.062Z,99.90
2023-02-21T01:15:10.396Z,99.90
2023-02-21T01:17:56.108Z,99.90
2023-02-21T01:20:42.036Z,99.90
2023-02-21T01:23:29.410Z,99.90
2023-02-21T01:26:15.311Z,99.90
2023-02-21T01:29:00.937Z,99.90
2023-02-21T01:31:46.636Z,99.90
2023-02-21T01:34:32.957Z,99.90
2023-02-21T01:37:19.376Z,99.90
2023-02-21T01:40:06.219Z,99.90
2023-02-21T01:42:51.931Z,99.90
2023-02-21T01:46:04.315Z,99.90
2023-02-21T01:48:53.671Z,99.90
2023-02-21T01:51:43.061Z,99.90
2023-02-21T01:54:30.477Z,99.90
2023-02-21T01:57:19.394Z,99.90
2023-02-21T02:00:05.401Z,99.90
2023-02-21T02:02:56.775Z,99.90
2023-02-21T02:05:43.757Z,99.90
2023-02-21T02:08:29.804Z,99.90
2023-02-21T02:11:22.930Z,99.90
2023-02-21T02:14:05.772Z,99.90
2023-02-21T02:16:40.472Z,99.90
2023-02-21T02:19:36.721Z,99.90
2023-02-21T02:22:40.997Z,99.90
2023-02-21T02:25:23.134Z,99.90
2023-02-21T02:28:02.464Z,99.90
2023-02-21T02:30:50.631Z,99.90
2023-02-21T02:33:50.338Z,99.90
2023-02-21T02:36:23.478Z,99.90
2023-02-21T02:38:58.467Z,99.90
2023-02-21T02:41:34.391Z,99.90
2023-02-21T02:44:08.290Z,99.90
2023-02-21T02:46:42.242Z,99.90
2023-02-21T02:49:14.265Z,99.90
2023-02-21T02:51:43.980Z,99.90
2023-02-21T02:54:12.000Z,99.90
2023-02-21T02:56:40.194Z,99.90
2023-02-21T02:59:11.157Z,99.90
2023-02-21T03:02:09.640Z,99.90
2023-02-21T03:05:03.606Z,99.90
2023-02-21T03:07:45.083Z,99.90
2023-02-21T03:10:23.606Z,99.90
2023-02-21T03:13:00.984Z,99.90
2023-02-21T03:15:35.582Z,99.90
2023-02-21T03:18:07.878Z,99.90
2023-02-21T03:20:38.288Z,99.90
2023-02-21T03:23:10.053Z,99.90
2023-02-21T03:25:39.813Z,99.90
2023-02-21T03:28:08.411Z,99.90
2023-02-21T03:30:38.147Z,99.90
2023-02-21T03:33:06.229Z,99.90
2023-02-21T03:35:34.544Z,99.90
2023-02-21T03:38:02.656Z,99.90
2023-02-21T03:40:34.276Z,99.90
2023-02-21T03:43:05.357Z,99.90
2023-02-21T03:45:33.415Z,99.90
2023-02-21T03:48:01.788Z,99.90
2023-02-21T03:50:29.974Z,99.90
2023-02-21T03:52:58.023Z,99.90
2023-02-21T03:55:26.116Z,99.90
2023-02-21T03:57:55.869Z,99.90
2023-02-21T04:00:25.097Z,99.90
2023-02-21T04:02:53.422Z,99.90
2023-02-21T04:05:23.197Z,99.90
2023-02-21T04:07:51.336Z,99.90
2023-02-21T04:10:21.139Z,99.90
2023-02-21T04:12:49.376Z,99.90
2023-02-21T04:15:19.788Z,99.90
2023-02-21T04:17:47.901Z,99.90
2023-02-21T04:20:17.080Z,99.90
2023-02-21T04:22:54.503Z,99.90
2023-02-21T04:25:30.828Z,99.90
2023-02-21T04:28:00.159Z,99.90
2023-02-21T04:30:29.622Z,99.90
2023-02-21T04:32:58.074Z,99.90
2023-02-21T04:35:26.521Z,99.90
2023-02-21T04:37:54.601Z,99.90
2023-02-21T04:40:23.060Z,99.90
2023-02-21T04:42:55.916Z,99.90
2023-02-21T04:45:27.893Z,99.90
2023-02-21T04:47:57.456Z,99.90
2023-02-21T04:50:33.381Z,99.90
2023-02-21T04:53:01.737Z,99.90
2023-02-21T04:55:29.797Z,99.90
2023-02-21T04:57:57.916Z,99.90
2023-02-21T05:00:25.988Z,99.90
2023-02-21T05:02:54.155Z,99.90
2023-02-21T05:05:27.163Z,99.90
2023-02-21T05:07:55.395Z,99.90
2023-02-21T05:10:36.614Z,99.90
2023-02-21T05:13:15.652Z,99.90
2023-02-21T05:15:44.241Z,99.90
2023-02-21T05:18:12.499Z,99.90
2023-02-21T05:20:42.143Z,99.90
2023-02-21T05:23:13.822Z,99.90
2023-02-21T05:25:49.121Z,99.90
2023-02-21T05:28:23.680Z,99.90
2023-02-21T05:30:52.117Z,99.90
2023-02-21T05:33:20.234Z,99.90
2023-02-21T05:35:51.611Z,99.90
2023-02-21T05:38:21.399Z,99.90
2023-02-21T05:40:49.821Z,99.90
2023-02-21T05:43:18.016Z,99.90
2023-02-21T05:45:46.303Z,99.90
2023-02-21T05:48:14.402Z,99.90
2023-02-21T05:50:45.073Z,99.90
2023-02-21T05:53:18.637Z,99.90
2023-02-21T05:55:47.084Z,99.90
2023-02-21T05:58:21.152Z,99.90
2023-02-21T06:00:57.197Z,99.90
2023-02-21T06:03:49.850Z,99.90
2023-02-21T06:06:32.011Z,99.90
2023-02-21T06:15:47.724Z,99.90
2023-02-21T06:18:19.398Z,99.90
2023-02-21T06:21:16.524Z,99.90
2023-02-21T06:23:45.844Z,99.90
2023-02-21T06:26:38.261Z,99.90
2023-02-21T06:29:08.591Z,99.90
2023-02-21T06:31:37.805Z,99.90
2023-02-21T06:34:07.378Z,99.90
2023-02-21T06:36:35.757Z,99.90
2023-02-21T06:39:05.493Z,99.90
2023-02-21T06:41:35.180Z,99.90
2023-02-21T06:44:06.400Z,99.90
2023-02-21T06:46:38.960Z,99.90
2023-02-21T06:52:41.997Z,99.90
2023-02-21T06:55:14.487Z,99.90
2023-02-21T06:57:45.272Z,99.90
2023-02-21T07:00:15.961Z,99.90
2023-02-21T07:02:46.859Z,99.90
2023-02-21T07:05:17.628Z,99.90
2023-02-21T07:08:08.253Z,99.90
2023-02-21T07:10:38.316Z,99.90
2023-02-21T07:13:09.499Z,99.90
2023-02-21T07:15:37.728Z,99.90
2023-02-21T07:18:06.660Z,99.90
2023-02-21T07:23:09.791Z,99.90
2023-02-21T07:25:42.627Z,99.90
2023-02-21T07:28:19.491Z,99.90
2023-02-21T07:30:49.697Z,99.90
2023-02-21T07:33:19.925Z,99.90
2023-02-21T07:35:50.313Z,99.90
2023-02-21T07:44:45.628Z,99.90
2023-02-21T07:47:33.751Z,99.90
2023-02-21T07:50:09.562Z,99.90
2023-02-21T07:52:39.293Z,99.90
2023-02-21T07:55:26.837Z,99.90
2023-02-21T07:57:55.736Z,99.90
2023-02-21T08:00:40.315Z,99.90
2023-02-21T08:03:10.016Z,99.90
2023-02-21T08:05:38.247Z,99.90
2023-02-21T08:08:15.951Z,99.90
2023-02-21T08:10:52.007Z,35.20
2023-02-21T08:13:58.497Z,82.70
2023-02-21T08:17:21.881Z,70.80
2023-02-21T08:20:13.083Z,77.90
2023-02-21T08:22:42.242Z,52.10
2023-02-21T08:25:12.562Z,73.00
2023-02-21T08:27:43.903Z,94.40
2023-02-21T08:30:15.412Z,95.40
2023-02-21T08:32:51.466Z,99.90
2023-02-21T08:35:24.324Z,99.60
2023-02-21T08:37:56.923Z,99.90
2023-02-21T08:40:30.878Z,99.10
2023-02-21T08:45:57.163Z,99.90
2023-02-21T08:48:27.836Z,99.90
2023-02-21T08:57:28.246Z,97.00
2023-02-21T09:00:07.482Z,91.00
2023-02-21T09:02:40.212Z,93.10
2023-02-21T09:05:13.745Z,90.30
2023-02-21T09:07:42.272Z,89.70
2023-02-21T09:10:13.473Z,96.60
2023-02-21T09:12:45.834Z,79.40
2023-02-21T09:15:28.185Z,75.80
2023-02-21T09:17:58.713Z,82.60
2023-02-21T09:20:27.864Z,74.50
2023-02-21T09:22:57.227Z,79.00
2023-02-21T09:25:27.118Z,77.40
2023-02-21T09:28:14.485Z,83.20
2023-02-21T09:30:47.008Z,84.70
2023-02-21T09:33:17.742Z,95.40
2023-02-21T09:35:52.132Z,93.60
2023-02-21T09:38:30.949Z,92.20
2023-02-21T09:41:02.378Z,91.70
2023-02-21T09:43:40.733Z,92.20
2023-02-21T09:46:15.557Z,91.40
2023-02-21T09:48:45.652Z,86.30
2023-02-21T09:51:15.970Z,83.10
2023-02-21T09:53:58.851Z,77.40
2023-02-21T09:56:30.372Z,61.00
2023-02-21T09:59:24.068Z,54.80
2023-02-21T10:02:13.034Z,53.20
2023-02-21T10:05:00.626Z,66.80
2023-02-21T10:07:39.112Z,55.00
2023-02-21T10:10:15.360Z,61.30
2023-02-21T10:12:53.624Z,64.70
2023-02-21T10:15:36.280Z,62.00
2023-02-21T10:18:11.020Z,58.50
2023-02-21T10:20:45.312Z,52.40
2023-02-21T10:26:31.580Z,66.30
2023-02-21T10:29:01.595Z,60.80
2023-02-21T10:31:43.613Z,64.60
2023-02-21T10:34:29.619Z,58.50
2023-02-21T10:37:28.250Z,61.80
2023-02-21T10:43:07.060Z,67.60
2023-02-21T10:49:47.825Z,55.80
2023-02-21T10:52:21.240Z,55.40
2023-02-21T10:55:02.768Z,55.10
2023-02-21T10:57:38.187Z,50.20
2023-02-21T11:03:34.762Z,53.40
2023-02-21T11:06:40.660Z,42.00
2023-02-21T11:09:51.474Z,45.10
2023-02-21T11:16:27.065Z,46.10
2023-02-21T11:19:11.198Z,53.10
2023-02-21T11:22:01.705Z,45.60
2023-02-21T11:24:46.382Z,45.00
2023-02-21T11:27:26.658Z,55.90
2023-02-21T11:30:04.788Z,54.20
2023-02-21T11:32:38.644Z,68.60
2023-02-21T11:35:22.243Z,61.80
2023-02-21T11:38:16.386Z,63.10
2023-02-21T11:41:41.818Z,63.70
2023-02-21T11:44:30.765Z,62.00
2023-02-21T11:47:11.269Z,55.00
2023-02-21T11:50:09.450Z,67.30
2023-02-21T11:53:07.373Z,78.80
2023-02-21T11:55:43.756Z,66.80
2023-02-21T11:58:27.237Z,65.20
2023-02-21T12:01:06.506Z,56.00
2023-02-21T12:04:14.555Z,62.30
2023-02-21T12:07:20.540Z,74.30
2023-02-21T12:10:25.127Z,89.00
2023-02-21T12:13:10.786Z,64.10
2023-02-21T12:19:15.015Z,57.80
2023-02-21T12:22:03.877Z,46.60
2023-02-21T12:24:52.193Z,53.80
2023-02-21T12:27:35.383Z,56.90
2023-02-21T12:30:38.259Z,76.70
2023-02-21T12:33:21.891Z,68.70
2023-02-21T12:36:23.515Z,61.80
2023-02-21T12:42:30.901Z,68.80
2023-02-21T12:51:47.854Z,64.80
2023-02-21T12:54:25.239Z,48.00
2023-02-21T12:56:57.921Z,68.40
2023-02-21T12:59:31.638Z,50.60
2023-02-21T13:02:19.422Z,49.70
2023-02-21T13:04:58.458Z,58.30
2023-02-21T13:07:41.351Z,55.80
2023-02-21T13:10:24.304Z,55.10
2023-02-21T13:13:03.503Z,64.90
2023-02-21T13:15:32.725Z,55.00
2023-02-21T13:18:05.048Z,61.40
2023-02-21T13:20:39.333Z,59.00
2023-02-21T13:23:59.789Z,55.40
2023-02-21T13:26:57.843Z,55.10
2023-02-21T13:29:30.834Z,52.10
2023-02-21T13:32:10.313Z,67.30
2023-02-21T13:34:50.812Z,55.40
2023-02-21T13:37:22.514Z,51.70
2023-02-21T13:39:58.966Z,53.50
2023-02-21T13:42:38.981Z,47.10
2023-02-21T13:45:41.710Z,56.10
2023-02-21T13:48:54.132Z,64.30
2023-02-21T13:56:09.514Z,54.50
2023-02-21T14:02:05.586Z,61.80
2023-02-21T14:05:18.289Z,56.00
2023-02-21T14:08:14.492Z,54.40
2023-02-21T14:12:03.867Z,51.70
2023-02-21T14:14:39.712Z,47.90
2023-02-21T14:17:11.385Z,51.40
2023-02-21T14:19:45.385Z,52.80
2023-02-21T14:22:17.073Z,58.20
2023-02-21T14:24:49.371Z,55.70
2023-02-21T14:27:41.611Z,54.60
2023-02-21T14:30:32.245Z,60.50
2023-02-21T14:33:21.148Z,61.10
2023-02-21T14:36:02.732Z,65.60
2023-02-21T14:38:42.303Z,60.70
2023-02-21T14:41:34.108Z,60.70
2023-02-21T14:44:20.931Z,63.00
2023-02-21T14:47:29.821Z,57.80
2023-02-21T14:50:21.959Z,61.90
2023-02-21T14:53:21.324Z,60.90
2023-02-21T14:56:04.265Z,63.80
2023-02-21T14:59:06.038Z,62.00
2023-02-21T15:01:50.141Z,74.40
2023-02-21T15:04:36.014Z,74.30
2023-02-21T15:07:19.056Z,72.30
2023-02-21T15:10:35.391Z,69.00
2023-02-21T15:16:18.084Z,68.90
2023-02-21T15:19:32.710Z,71.10
2023-02-21T15:22:27.909Z,73.40
2023-02-21T15:25:25.690Z,71.30
2023-02-21T15:28:08.958Z,79.60
2023-02-21T15:30:42.342Z,85.30
2023-02-21T15:33:21.543Z,81.90
2023-02-21T15:36:16.620Z,82.20
2023-02-21T15:39:10.030Z,84.10
2023-02-21T15:41:41.925Z,86.50
2023-02-21T15:44:35.952Z,82.50
2023-02-21T15:47:18.496Z,80.70
2023-02-21T15:50:09.521Z,82.50
2023-02-21T15:53:03.356Z,81.90
2023-02-21T15:59:14.307Z,79.80
2023-02-21T16:01:50.396Z,80.80
2023-02-21T16:04:32.672Z,79.50
2023-02-21T16:07:07.521Z,83.50
2023-02-21T16:16:08.638Z,81.00
2023-02-21T16:18:37.852Z,82.60
2023-02-21T16:21:08.460Z,78.60
2023-02-21T16:23:39.406Z,76.20
2023-02-21T16:29:20.830Z,71.50
2023-02-21T16:31:53.766Z,65.90
2023-02-21T16:34:22.084Z,70.60
2023-02-21T16:37:03.421Z,70.40
2023-02-21T16:39:42.544Z,75.60
2023-02-21T16:42:36.647Z,72.70
2023-02-21T16:45:13.214Z,68.60
2023-02-21T16:47:48.880Z,70.60
2023-02-21T16:53:38.782Z,72.00
2023-02-21T16:56:10.427Z,74.60
2023-02-21T16:58:41.144Z,82.00
2023-02-21T17:01:14.629Z,88.90
2023-02-21T17:03:44.672Z,88.40
2023-02-21T17:10:10.730Z,94.20
2023-02-21T17:13:33.955Z,95.90
2023-02-21T17:16:14.070Z,99.90
2023-02-21T17:18:42.300Z,99.90
2023-02-21T17:21:15.037Z,99.90
2023-02-21T17:23:59.703Z,99.90
2023-02-21T17:27:16.116Z,99.90
2023-02-21T17:29:54.119Z,99.90
2023-02-21T17:32:26.496Z,99.90
2023-02-21T17:34:59.792Z,99.90
2023-02-21T17:37:41.574Z,99.90
2023-02-21T17:40:23.574Z,99.90
2023-02-21T17:42:51.908Z,99.90
2023-02-21T17:45:21.457Z,99.90
2023-02-21T17:48:05.041Z,99.90
2023-02-21T17:50:41.060Z,99.90
2023-02-21T17:53:26.510Z,99.90
2023-02-21T17:55:54.892Z,99.90
2023-02-21T17:58:26.959Z,99.90
2023-02-21T18:00:56.101Z,99.90
2023-02-21T18:06:14.968Z,99.90
2023-02-21T18:08:47.211Z,99.90
2023-02-21T18:11:17.781Z,99.90
2023-02-21T18:13:47.670Z,99.90
2023-02-21T18:16:28.256Z,99.90
2023-02-21T18:18:56.446Z,99.90
2023-02-21T18:21:25.365Z,99.90
2023-02-21T18:24:01.988Z,99.90
2023-02-21T18:26:31.368Z,99.90
2023-02-21T18:28:59.803Z,99.90
2023-02-21T18:31:27.879Z,99.90
2023-02-21T18:33:59.915Z,99.90
2023-02-21T18:36:29.406Z,99.90
2023-02-21T18:39:00.236Z,99.90
2023-02-21T18:41:31.613Z,99.90
2023-02-21T18:44:00.018Z,99.90
2023-02-21T18:46:29.312Z,99.90
2023-02-21T18:49:24.510Z,99.90
2023-02-21T18:52:06.771Z,99.90
2023-02-21T18:54:52.255Z,99.90
2023-02-21T19:00:13.957Z,99.90
2023-02-21T19:02:53.159Z,99.90
2023-02-21T19:06:09.013Z,99.90
2023-02-21T19:15:19.590Z,99.90
2023-02-21T19:17:56.235Z,99.90
2023-02-21T19:20:24.327Z,99.90
2023-02-21T19:22:56.062Z,99.90
2023-02-21T19:25:26.972Z,99.90
2023-02-21T19:28:03.940Z,99.90
2023-02-21T19:30:37.791Z,99.90
2023-02-21T19:33:08.073Z,99.90
2023-02-21T19:35:37.721Z,99.90
2023-02-21T19:38:08.068Z,99.90
2023-02-21T19:40:41.340Z,99.90
2023-02-21T19:43:10.572Z,99.90
2023-02-21T19:45:40.245Z,1.00
2023-02-21T19:48:10.079Z,1.00
2023-02-21T19:50:38.990Z,1.00
2023-02-21T19:53:07.192Z,1.00
2023-02-21T19:55:35.474Z,1.00
2023-02-21T19:58:10.395Z,1.00
2023-02-21T20:00:43.859Z,1.00
2023-02-21T20:03:14.148Z,1.00
2023-02-21T20:05:42.195Z,1.00
2023-02-21T20:08:10.440Z,1.00
2023-02-21T20:10:42.940Z,1.00
2023-02-21T20:13:11.486Z,1.00
2023-02-21T20:15:40.951Z,1.00
2023-02-21T20:18:09.194Z,1.00
2023-02-21T20:20:37.200Z,1.00
2023-02-21T20:23:05.330Z,1.00
2023-02-21T20:25:34.312Z,1.00
2023-02-21T20:28:03.759Z,1.00
2023-02-21T20:30:41.937Z,1.00
2023-02-21T20:33:22.057Z,1.00
2023-02-21T20:35:52.056Z,1.00
2023-02-21T20:38:21.596Z,1.00
2023-02-21T20:40:51.374Z,1.00
2023-02-21T20:43:21.115Z,1.00
2023-02-21T20:45:50.004Z,1.00
2023-02-21T20:48:28.274Z,1.00
2023-02-21T20:51:09.500Z,1.00
2023-02-21T20:53:37.955Z,1.00
2023-02-21T20:56:06.830Z,1.00
2023-02-21T20:58:35.050Z,1.00
2023-02-21T21:01:04.673Z,1.00
2023-02-21T21:03:36.053Z,1.00
2023-02-21T21:06:04.363Z,1.00
2023-02-21T21:08:32.389Z,1.00
2023-02-21T21:11:00.992Z,1.00
2023-02-21T21:13:29.139Z,1.00
2023-02-21T21:15:57.214Z,1.00
2023-02-21T21:18:27.093Z,1.00
2023-02-21T21:20:56.638Z,1.00
2023-02-21T21:23:25.977Z,1.00
2023-02-21T21:25:54.196Z,1.00
2023-02-21T21:28:25.770Z,1.00
2023-02-21T21:31:01.051Z,1.00
2023-02-21T21:33:30.026Z,1.00
2023-02-21T21:36:00.386Z,1.00
2023-02-21T21:38:29.893Z,1.00
2023-02-21T21:40:58.276Z,1.00
2023-02-21T21:43:28.477Z,1.00
2023-02-21T21:45:58.479Z,1.00
2023-02-21T21:48:26.904Z,1.00
2023-02-21T21:50:54.976Z,1.00
2023-02-21T21:53:24.390Z,1.00
2023-02-21T21:55:54.172Z,1.00
2023-02-21T21:58:26.792Z,1.00
2023-02-21T22:00:55.060Z,1.00
2023-02-21T22:03:23.059Z,1.00
2023-02-21T22:05:52.083Z,1.00
2023-02-21T22:08:22.703Z,1.00
2023-02-21T22:10:52.192Z,1.00
2023-02-21T22:13:30.691Z,1.00
2023-02-21T22:16:01.599Z,1.00
2023-02-21T22:18:30.805Z,1.00
2023-02-21T22:20:59.143Z,1.00
2023-02-21T22:23:27.293Z,1.00
2023-02-21T22:25:59.343Z,1.00
2023-02-21T22:28:27.458Z,1.00
2023-02-21T22:30:55.620Z,1.00
2023-02-21T22:33:23.859Z,1.00
2023-02-21T22:35:51.957Z,1.00
2023-02-21T22:38:19.998Z,1.00
2023-02-21T22:40:48.219Z,1.00
2023-02-21T22:43:20.113Z,1.00
2023-02-21T22:45:49.966Z,1.00
2023-02-21T22:48:20.722Z,1.00
2023-02-21T22:50:49.405Z,1.00
2023-02-21T22:53:19.019Z,1.00
2023-02-21T22:55:51.792Z,1.00
2023-02-21T22:58:22.163Z,1.00
2023-02-21T23:01:06.576Z,1.00
2023-02-21T23:04:21.274Z,1.00
2023-02-21T23:06:50.648Z,1.00
2023-02-21T23:09:18.691Z,1.00
2023-02-21T23:11:48.955Z,1.00
2023-02-21T23:14:20.205Z,1.00
2023-02-21T23:16:48.283Z,1.00
2023-02-21T23:19:16.598Z,1.00
2023-02-21T23:21:49.386Z,1.00
2023-02-21T23:24:19.994Z,1.00
2023-02-21T23:26:48.512Z,1.00
2023-02-21T23:29:20.207Z,1.00
2023-02-21T23:31:49.840Z,1.00
2023-02-21T23:34:19.783Z,1.00
2023-02-21T23:36:49.361Z,1.00
2023-02-21T23:39:17.520Z,1.00
2023-02-21T23:41:49.064Z,1.00
2023-02-21T23:44:18.982Z,1.00
2023-02-21T23:46:47.091Z,1.00
2023-02-21T23:49:16.550Z,1.00
2023-02-21T23:51:46.816Z,1.00
2023-02-21T23:54:15.209Z,1.00
2023-02-21T23:56:47.064Z,1.00
2023-02-21T23:59:16.180Z,1.00
